Time;durP1;ratioP1;P1;durP2;ratioP2;P2;SDS_P1;SDS_P2;PMS_P1;PMS_P2;Temp;Humidity;BMP_temperature;BMP_pressure;BME280_temperature;BME280_humidity;BME280_pressure;Samples;Min_cycle;Max_cycle;Signal;HPM_P1;HPM_P2
2023/05/13 00:00:49;;;;;;;;;;;;;;;;;;2204681;59;2334;-18
2023/05/13 00:03:20;;;;;;;;;;;;;;;;;;2215999;58;2119;-18
2023/05/13 00:05:50;;;;;;;;;;;;;;;;;;2218063;58;2591;-18
2023/05/13 00:08:21;;;;;;;;;;;;;;;;;;2216610;66;2817;-18
2023/05/13 00:10:51;;;;;;;;;;;;;;;;;;2217209;59;3004;-18
2023/05/13 00:13:21;;;;;;;;;;;;;;;;;;2217865;66;2157;-18
2023/05/13 00:15:52;;;;;;;;;;;;;;;;;;2218663;58;2673;-18
2023/05/13 00:18:22;;;;;;;;;;;;;;;;;;2217229;58;2069;-18
2023/05/13 00:20:52;;;;;;;;;;;;;;;;;;2215488;59;2659;-18
2023/05/13 00:23:23;;;;;;;;;;;;;;;;;;2202179;63;1983;-18
2023/05/13 00:25:53;;;;;;;;;;;;;;;;;;2219258;66;3003;-18
2023/05/13 00:28:23;;;;;;;;;;;;;;;;;;2217713;66;2665;-18
2023/05/13 00:30:54;;;;;;;;;;;;;;;;;;2218343;59;3396;-18
2023/05/13 00:33:24;;;;;;;;;;;;;;;;;;2218152;59;2507;-19
2023/05/13 00:35:54;;;;;;;;;;;;;;;;;;2216898;59;2550;-18
2023/05/13 00:38:25;;;;;;;;;;;;;;;;;;2203439;59;2630;-18
2023/05/13 00:40:55;;;;;;;;;;;;;;;;;;2217858;59;2789;-18
2023/05/13 00:43:25;;;;;;;;;;;;;;;;;;2205299;66;3115;-18
2023/05/13 00:45:56;;;;;;;;;;;;;;;;;;2205141;66;2819;-18
2023/05/13 00:48:26;;;;;;;;;;;;;;;;;;2204109;59;2650;-18
2023/05/13 00:50:59;;;;;;;;;;;;;;;;;;2202669;58;2731;-18
2023/05/13 00:53:31;;;;;;;;;;;;;;;;;;2218902;66;1951;-18
2023/05/13 00:56:02;;;;;;;;;;;;;;;;;;2218753;58;1937;-18
2023/05/13 00:58:32;;;;;;;;;;;;;;;;;;2202726;59;2212;-18
2023/05/13 01:01:18;;;;;;;;;;;;;;;;;;2205483;58;2069;-18
2023/05/13 01:03:57;;;;;;;;;;;;;;;;;;2219102;58;2020;-18
2023/05/13 01:06:44;;;;;;;;;;;;;;;;;;2219797;66;1986;-18
2023/05/13 01:09:33;;;;;;;;;;;;;;;;;;2214326;66;2899;-19
2023/05/13 01:12:09;;;;;;;;;;;;;;;;;;2218155;66;2408;-18
2023/05/13 01:14:44;;;;;;;;;;;;;;;;;;2217989;66;2079;-18
2023/05/13 01:17:17;;;;;;;;;;;;;;;;;;2218981;66;2721;-18
2023/05/13 01:19:51;;;;;;;;;;;;;;;;;;2204676;66;2628;-19
2023/05/13 01:22:21;;;;;;;;;;;;;;;;;;2204116;66;2004;-20
2023/05/13 01:24:51;;;;;;;;;;;;;;;;;;2217617;66;2016;-20
2023/05/13 01:27:21;;;;;;;;;;;;;;;;;;2203756;66;2101;-20
2023/05/13 01:29:53;;;;;;;;;;;;;;;;;;2219391;66;2743;-20
2023/05/13 01:32:23;;;;;;;;;;;;;;;;;;2204371;66;2667;-20
2023/05/13 01:34:54;;;;;;;;;;;;;;;;;;2220681;59;2191;-20
2023/05/13 01:37:24;;;;;;;;;;;;;;;;;;2220577;59;1713;-20
2023/05/13 01:39:54;;;;;;;;;;;;;;;;;;2221597;58;1832;-20
2023/05/13 01:42:27;;;;;;;;;;;;;;;;;;2205269;59;1859;-20
2023/05/13 01:44:57;;;;;;;;;;;;;;;;;;2206588;59;2019;-20
2023/05/13 01:47:27;;;;;;;;;;;;;;;;;;2221440;66;2824;-20
2023/05/13 01:49:57;;;;;;;;;;;;;;;;;;2222828;66;2075;-20
2023/05/13 01:52:31;;;;;;;;;;;;;;;;;;2208536;59;2097;-20
2023/05/13 01:55:01;;;;;;;;;;;;;;;;;;2220303;59;1959;-20
2023/05/13 01:57:32;;;;;;;;;;;;;;;;;;2204808;58;2671;-19
2023/05/13 02:00:03;;;;;;;;;;;;;;;;;;2202678;66;1696;-20
2023/05/13 02:02:34;;;;;;;;;;;;;;;;;;2201417;59;2089;-20
2023/05/13 02:05:05;;;;;;;;;;;;;;;;;;2207499;59;2042;-20
2023/05/13 02:07:35;;;;;;;;;;;;;;;;;;2203427;66;2726;-20
2023/05/13 02:10:05;;;;;;;;;;;;;;;;;;2219244;66;1935;-20
2023/05/13 02:12:36;;;;;;;;;;;;;;;;;;2222112;66;2136;-20
2023/05/13 02:15:06;;;;;;;;;;;;;;;;;;2221678;66;2695;-20
2023/05/13 02:17:37;;;;;;;;;;;;;;;;;;2220381;66;2778;-20
2023/05/13 02:20:07;;;;;;;;;;;;;;;;;;2220506;58;2962;-20
2023/05/13 02:22:38;;;;;;;;;;;;;;;;;;2204547;66;2849;-20
2023/05/13 02:25:08;;;;;;;;;;;;;;;;;;2206707;66;2453;-20
2023/05/13 02:27:38;;;;;;;;;;;;;;;;;;2220078;66;2216;-20
2023/05/13 02:30:09;;;;;;;;;;;;;;;;;;2206316;66;2119;-19
2023/05/13 02:32:41;;;;;;;;;;;;;;;;;;2216437;66;2239;-19
2023/05/13 02:35:11;;;;;;;;;;;;;;;;;;2202357;59;2816;-19
2023/05/13 02:37:42;;;;;;;;;;;;;;;;;;2220050;58;2178;-20
2023/05/13 02:40:14;;;;;;;;;;;;;;;;;;2218477;58;2096;-20
2023/05/13 02:42:44;;;;;;;;;;;;;;;;;;2204931;66;2910;-20
2023/05/13 02:45:15;;;;;;;;;;;;;;;;;;2217550;66;2169;-19
2023/05/13 02:47:45;;;;;;;;;;;;;;;;;;2218999;58;2290;-20
2023/05/13 02:50:16;;;;;;;;;;;;;;;;;;2218596;66;2612;-20
2023/05/13 02:52:46;;;;;;;;;;;;;;;;;;2204528;59;2961;-20
2023/05/13 02:55:16;;;;;;;;;;;;;;;;;;2207630;59;2899;-20
2023/05/13 02:57:47;;;;;;;;;;;;;;;;;;2220074;59;2325;-19
2023/05/13 03:00:17;;;;;;;;;;;;;;;;;;2204547;59;2421;-19
2023/05/13 03:02:48;;;;;;;;;;;;;;;;;;2217949;58;2780;-19
2023/05/13 03:05:18;;;;;;;;;;;;;;;;;;2219254;58;2201;-20
2023/05/13 03:07:48;;;;;;;;;;;;;;;;;;2219265;62;2010;-20
2023/05/13 03:10:18;;;;;;;;;;;;;;;;;;2203764;66;2835;-19
2023/05/13 03:12:49;;;;;;;;;;;;;;;;;;2204539;59;2951;-20
2023/05/13 03:15:19;;;;;;;;;;;;;;;;;;2201676;66;2131;-20
2023/05/13 03:17:49;;;;;;;;;;;;;;;;;;2219082;66;2819;-19
2023/05/13 03:20:20;;;;;;;;;;;;;;;;;;2203441;58;2033;-20
2023/05/13 03:22:50;;;;;;;;;;;;;;;;;;2203989;66;2832;-19
2023/05/13 03:25:21;;;;;;;;;;;;;;;;;;2218189;62;2301;-19
2023/05/13 03:27:51;;;;;;;;;;;;;;;;;;2218412;66;2250;-19
2023/05/13 03:30:21;;;;;;;;;;;;;;;;;;2218064;66;2176;-19
2023/05/13 03:32:55;;;;;;;;;;;;;;;;;;2216549;66;3075;-20
2023/05/13 03:35:25;;;;;;;;;;;;;;;;;;2216810;58;3179;-19
2023/05/13 03:37:55;;;;;;;;;;;;;;;;;;2204086;59;2354;-20
2023/05/13 03:40:29;;;;;;;;;;;;;;;;;;2204192;66;2089;-19
2023/05/13 03:42:59;;;;;;;;;;;;;;;;;;2220076;59;2806;-19
2023/05/13 03:45:30;;;;;;;;;;;;;;;;;;2204764;59;2513;-19
2023/05/13 03:48:00;;;;;;;;;;;;;;;;;;2218425;59;3023;-19
2023/05/13 03:50:33;;;;;;;;;;;;;;;;;;2202387;66;1698;-19
2023/05/13 03:53:04;;;;;;;;;;;;;;;;;;2218607;59;2697;-20
2023/05/13 03:55:34;;;;;;;;;;;;;;;;;;2218024;58;2228;-19
2023/05/13 03:58:14;;;;;;;;;;;;;;;;;;2219715;59;3571;-32
2023/05/13 04:00:45;;;;;;;;;;;;;;;;;;2216784;59;2941;-19
2023/05/13 04:03:16;;;;;;;;;;;;;;;;;;2218377;58;2573;-20
2023/05/13 04:05:47;;;;;;;;;;;;;;;;;;2217734;58;2150;-18
2023/05/13 04:08:20;;;;;;;;;;;;;;;;;;2203191;66;2608;-18
2023/05/13 04:10:51;;;;;;;;;;;;;;;;;;2217286;66;2381;-18
2023/05/13 04:13:21;;;;;;;;;;;;;;;;;;2219179;66;2446;-18
2023/05/13 04:15:53;;;;;;;;;;;;;;;;;;2205117;66;2080;-18
2023/05/13 04:18:23;;;;;;;;;;;;;;;;;;2203120;59;2171;-18
2023/05/13 04:20:53;;;;;;;;;;;;;;;;;;2203484;59;3035;-18
2023/05/13 04:23:24;;;;;;;;;;;;;;;;;;2218968;66;3330;-18
2023/05/13 04:25:54;;;;;;;;;;;;;;;;;;2201051;59;2054;-18
2023/05/13 04:28:24;;;;;;;;;;;;;;;;;;2202806;66;2167;-19
2023/05/13 04:30:55;;;;;;;;;;;;;;;;;;2215127;58;2584;-18
2023/05/13 04:33:25;;;;;;;;;;;;;;;;;;2219678;59;2483;-18
2023/05/13 04:35:56;;;;;;;;;;;;;;;;;;2217477;66;3610;-18
2023/05/13 04:38:26;;;;;;;;;;;;;;;;;;2218228;59;2276;-18
2023/05/13 04:40:56;;;;;;;;;;;;;;;;;;2217325;58;2972;-18
2023/05/13 04:43:27;;;;;;;;;;;;;;;;;;2218858;59;2592;-18
2023/05/13 04:45:57;;;;;;;;;;;;;;;;;;2203153;66;2854;-18
2023/05/13 04:48:27;;;;;;;;;;;;;;;;;;2203823;59;2307;-18
2023/05/13 04:50:57;;;;;;;;;;;;;;;;;;2217744;66;2976;-18
2023/05/13 04:53:28;;;;;;;;;;;;;;;;;;2218506;66;2191;-18
2023/05/13 04:55:59;;;;;;;;;;;;;;;;;;2202092;59;2639;-18
2023/05/13 04:58:30;;;;;;;;;;;;;;;;;;2203305;59;2233;-19
2023/05/13 05:01:00;;;;;;;;;;;;;;;;;;2207085;58;3219;-19
2023/05/13 05:03:30;;;;;;;;;;;;;;;;;;2216752;58;2598;-19
2023/05/13 05:06:00;;;;;;;;;;;;;;;;;;2219578;66;3382;-19
2023/05/13 05:08:31;;;;;;;;;;;;;;;;;;2218350;59;3104;-19
2023/05/13 05:11:01;;;;;;;;;;;;;;;;;;2218308;66;2423;-20
2023/05/13 05:13:31;;;;;;;;;;;;;;;;;;2218566;66;1911;-19
2023/05/13 05:16:01;;;;;;;;;;;;;;;;;;2204809;59;2339;-19
2023/05/13 05:18:32;;;;;;;;;;;;;;;;;;2219226;59;3035;-19
2023/05/13 05:21:02;;;;;;;;;;;;;;;;;;2217385;58;2298;-19
2023/05/13 05:23:32;;;;;;;;;;;;;;;;;;2219627;58;2002;-20
2023/05/13 05:26:03;;;;;;;;;;;;;;;;;;2220571;59;3365;-20
2023/05/13 05:28:33;;;;;;;;;;;;;;;;;;2205681;66;2152;-19
2023/05/13 05:31:04;;;;;;;;;;;;;;;;;;2219083;66;2946;-19
2023/05/13 05:33:35;;;;;;;;;;;;;;;;;;2218215;63;2412;-19
2023/05/13 05:36:05;;;;;;;;;;;;;;;;;;2203379;66;3100;-19
2023/05/13 05:38:35;;;;;;;;;;;;;;;;;;2202157;59;2185;-20
2023/05/13 05:41:06;;;;;;;;;;;;;;;;;;2215591;66;2702;-20
2023/05/13 05:43:36;;;;;;;;;;;;;;;;;;2205737;66;2098;-19
2023/05/13 05:46:06;;;;;;;;;;;;;;;;;;2203779;59;2338;-19
2023/05/13 05:48:37;;;;;;;;;;;;;;;;;;2216813;59;2708;-19
2023/05/13 05:51:07;;;;;;;;;;;;;;;;;;2204675;66;2463;-19
2023/05/13 05:53:39;;;;;;;;;;;;;;;;;;2217132;66;2151;-20
2023/05/13 05:56:09;;;;;;;;;;;;;;;;;;2218548;66;3063;-19
2023/05/13 05:58:40;;;;;;;;;;;;;;;;;;2219578;59;2744;-20
2023/05/13 06:01:10;;;;;;;;;;;;;;;;;;2205340;58;2155;-19
2023/05/13 06:03:40;;;;;;;;;;;;;;;;;;2205337;59;1690;-19
2023/05/13 06:06:10;;;;;;;;;;;;;;;;;;2218986;66;2682;-20
2023/05/13 06:08:41;;;;;;;;;;;;;;;;;;2202059;59;2851;-19
2023/05/13 06:11:11;;;;;;;;;;;;;;;;;;2218417;66;2227;-19
2023/05/13 06:13:42;;;;;;;;;;;;;;;;;;2203418;59;2488;-19
2023/05/13 06:16:13;;;;;;;;;;;;;;;;;;2203316;66;1953;-19
2023/05/13 06:18:43;;;;;;;;;;;;;;;;;;2203079;59;3083;-19
2023/05/13 06:21:13;;;;;;;;;;;;;;;;;;2217718;59;2667;-19
2023/05/13 06:23:44;;;;;;;;;;;;;;;;;;2217751;59;2195;-19
2023/05/13 06:26:14;;;;;;;;;;;;;;;;;;2203540;59;2330;-19
2023/05/13 06:28:44;;;;;;;;;;;;;;;;;;2217795;66;2129;-19
2023/05/13 06:31:15;;;;;;;;;;;;;;;;;;2218625;66;1888;-19
2023/05/13 06:33:45;;;;;;;;;;;;;;;;;;2204513;66;2797;-19
2023/05/13 06:36:15;;;;;;;;;;;;;;;;;;2218928;66;2731;-19
2023/05/13 06:38:45;;;;;;;;;;;;;;;;;;2217891;58;2615;-19
2023/05/13 06:41:16;;;;;;;;;;;;;;;;;;2201001;66;2071;-19
2023/05/13 06:43:47;;;;;;;;;;;;;;;;;;2203771;66;2955;-19
2023/05/13 06:46:18;;;;;;;;;;;;;;;;;;2204295;58;2854;-19
2023/05/13 06:48:51;;;;;;;;;;;;;;;;;;2218783;66;2058;-19
2023/05/13 06:51:21;;;;;;;;;;;;;;;;;;2215773;66;2773;-19
2023/05/13 06:53:52;;;;;;;;;;;;;;;;;;2216751;58;2983;-18
2023/05/13 06:56:22;;;;;;;;;;;;;;;;;;2217309;66;2302;-18
2023/05/13 06:58:52;;;;;;;;;;;;;;;;;;2216407;58;2127;-18
2023/05/13 07:01:23;;;;;;;;;;;;;;;;;;2216997;58;2579;-18
2023/05/13 07:03:53;;;;;;;;;;;;;;;;;;2206355;58;2150;-18
2023/05/13 07:06:23;;;;;;;;;;;;;;;;;;2201861;59;2919;-19
2023/05/13 07:08:54;;;;;;;;;;;;;;;;;;2216783;66;2830;-19
2023/05/13 07:11:24;;;;;;;;;;;;;;;;;;2217000;59;2727;-20
2023/05/13 07:13:54;;;;;;;;;;;;;;;;;;2219697;66;2857;-19
2023/05/13 07:16:25;;;;;;;;;;;;;;;;;;2219112;66;2613;-19
2023/05/13 07:18:55;;;;;;;;;;;;;;;;;;2213687;53;2827;-21
2023/05/13 07:21:25;;;;;;;;;;;;;;;;;;2196696;59;1770;-22
2023/05/13 07:23:55;;;;;;;;;;;;;;;;;;2198055;59;2418;-22
2023/05/13 07:26:26;;;;;;;;;;;;;;;;;;2198727;59;1851;-22
2023/05/13 07:28:56;;;;;;;;;;;;;;;;;;2197583;67;2730;-22
2023/05/13 07:31:27;;;;;;;;;;;;;;;;;;2199066;66;2545;-22
2023/05/13 07:33:57;;;;;;;;;;;;;;;;;;2200292;66;2800;-23
2023/05/13 07:36:28;;;;;;;;;;;;;;;;;;2197832;59;2676;-23
2023/05/13 07:38:58;;;;;;;;;;;;;;;;;;2198464;59;1969;-23
2023/05/13 07:41:29;;;;;;;;;;;;;;;;;;2199314;67;2009;-23
2023/05/13 07:43:59;;;;;;;;;;;;;;;;;;2198763;67;3090;-23
2023/05/13 07:46:29;;;;;;;;;;;;;;;;;;2195047;59;2818;-23
2023/05/13 07:48:59;;;;;;;;;;;;;;;;;;2199805;60;2825;-23
2023/05/13 07:51:30;;;;;;;;;;;;;;;;;;2199434;59;1955;-23
2023/05/13 07:54:00;;;;;;;;;;;;;;;;;;2199018;59;1870;-23
2023/05/13 07:56:30;;;;;;;;;;;;;;;;;;2200258;66;2954;-23
2023/05/13 07:59:00;;;;;;;;;;;;;;;;;;2197744;59;3042;-23
2023/05/13 08:01:30;;;;;;;;;;;;;;;;;;2199393;59;1800;-22
2023/05/13 08:04:01;;;;;;;;;;;;;;;;;;2198956;59;2317;-23
2023/05/13 08:06:31;;;;;;;;;;;;;;;;;;2200048;66;2276;-23
2023/05/13 08:09:02;;;;;;;;;;;;;;;;;;2197026;66;2050;-23
2023/05/13 08:11:32;;;;;;;;;;;;;;;;;;2200676;59;3144;-22
2023/05/13 08:14:03;;;;;;;;;;;;;;;;;;2197984;66;2861;-22
2023/05/13 08:16:35;;;;;;;;;;;;;;;;;;2197574;59;2002;-22
2023/05/13 08:19:05;;;;;;;;;;;;;;;;;;2197165;59;2797;-22
2023/05/13 08:21:35;;;;;;;;;;;;;;;;;;2199444;59;2136;-22
2023/05/13 08:24:05;;;;;;;;;;;;;;;;;;2196054;59;2566;-22
2023/05/13 08:26:36;;;;;;;;;;;;;;;;;;2196463;59;2398;-22
2023/05/13 08:29:06;;;;;;;;;;;;;;;;;;2196987;59;2191;-22
2023/05/13 08:31:36;;;;;;;;;;;;;;;;;;2197410;59;2174;-23
2023/05/13 08:34:06;;;;;;;;;;;;;;;;;;2197862;66;2999;-22
2023/05/13 08:36:37;;;;;;;;;;;;;;;;;;2197236;60;2241;-22
2023/05/13 08:39:07;;;;;;;;;;;;;;;;;;2200555;59;2780;-22
2023/05/13 08:41:37;;;;;;;;;;;;;;;;;;2197312;67;2198;-22
2023/05/13 08:44:08;;;;;;;;;;;;;;;;;;2197534;59;2587;-22
2023/05/13 08:46:40;;;;;;;;;;;;;;;;;;2195462;59;2620;-22
2023/05/13 08:49:10;;;;;;;;;;;;;;;;;;2193466;59;2223;-22
2023/05/13 08:51:43;;;;;;;;;;;;;;;;;;2197884;59;2485;-22
2023/05/13 08:54:15;;;;;;;;;;;;;;;;;;2197496;59;2880;-22
2023/05/13 08:56:45;;;;;;;;;;;;;;;;;;2197237;67;3107;-22
2023/05/13 08:59:16;;;;;;;;;;;;;;;;;;2196614;59;2210;-22
2023/05/13 09:01:49;;;;;;;;;;;;;;;;;;2196596;59;3064;-22
2023/05/13 09:04:19;;;;;;;;;;;;;;;;;;2197983;59;2764;-22
2023/05/13 09:06:49;;;;;;;;;;;;;;;;;;2198747;67;2030;-22
2023/05/13 09:09:20;;;;;;;;;;;;;;;;;;2198275;67;2099;-22
2023/05/13 09:11:50;;;;;;;;;;;;;;;;;;2197179;67;2064;-22
2023/05/13 09:14:20;;;;;;;;;;;;;;;;;;2196160;59;2477;-22
2023/05/13 09:16:51;;;;;;;;;;;;;;;;;;2198283;66;2649;-23
2023/05/13 09:19:22;;;;;;;;;;;;;;;;;;2197655;59;2336;-22
2023/05/13 09:21:53;;;;;;;;;;;;;;;;;;2198534;59;2446;-22
2023/05/13 09:24:23;;;;;;;;;;;;;;;;;;2198182;59;2064;-23
2023/05/13 09:26:53;;;;;;;;;;;;;;;;;;2197557;67;2102;-22
2023/05/13 09:29:25;;;;;;;;;;;;;;;;;;2199526;66;2187;-22
2023/05/13 09:31:56;;;;;;;;;;;;;;;;;;2197610;66;3078;-22
2023/05/13 09:34:31;;;;;;;;;;;;;;;;;;2198369;66;1804;-23
2023/05/13 09:37:02;;;;;;;;;;;;;;;;;;2197773;67;3111;-23
2023/05/13 09:39:36;;;;;;;;;;;;;;;;;;2198689;59;2026;-23
2023/05/13 09:42:25;;;;;;;;;;;;;;;;;;2197112;67;2460;-22
2023/05/13 09:44:55;;;;;;;;;;;;;;;;;;2196716;59;2241;-23
2023/05/13 09:47:26;;;;;;;;;;;;;;;;;;2195828;59;2603;-23
2023/05/13 09:49:56;;;;;;;;;;;;;;;;;;2194083;67;2903;-23
2023/05/13 09:52:28;;;;;;;;;;;;;;;;;;2198521;66;2965;-23
2023/05/13 09:54:59;;;;;;;;;;;;;;;;;;2197321;59;1925;-23
2023/05/13 09:57:30;;;;;;;;;;;;;;;;;;2195965;59;2582;-22
2023/05/13 10:00:01;;;;;;;;;;;;;;;;;;2199346;66;2271;-23
2023/05/13 10:02:32;;;;;;;;;;;;;;;;;;2197878;59;1786;-23
2023/05/13 10:05:02;;;;;;;;;;;;;;;;;;2199873;59;2370;-23
2023/05/13 10:07:33;;;;;;;;;;;;;;;;;;2197972;66;2740;-23
2023/05/13 10:10:05;;;;;;;;;;;;;;;;;;2196152;59;2797;-22
2023/05/13 10:12:36;;;;;;;;;;;;;;;;;;2197901;59;2101;-22
2023/05/13 10:15:07;;;;;;;;;;;;;;;;;;2198382;67;2156;-22
2023/05/13 10:17:38;;;;;;;;;;;;;;;;;;2197919;66;2874;-22
2023/05/13 10:20:08;;;;;;;;;;;;;;;;;;2196420;67;3524;-22
2023/05/13 10:22:39;;;;;;;;;;;;;;;;;;2197777;59;2311;-22
2023/05/13 10:25:10;;;;;;;;;;;;;;;;;;2198585;66;2466;-22
2023/05/13 10:27:41;;;;;;;;;;;;;;;;;;2200182;66;2893;-22
2023/05/13 10:30:12;;;;;;;;;;;;;;;;;;2198150;59;2415;-22
2023/05/13 10:32:42;;;;;;;;;;;;;;;;;;2198901;59;2726;-22
2023/05/13 10:35:14;;;;;;;;;;;;;;;;;;2197500;66;2021;-22
2023/05/13 10:37:53;;;;;;;;;;;;;;;;;;2197655;59;2261;-22
2023/05/13 10:40:48;;;;;;;;;;;;;;;;;;2199540;59;1994;-22
2023/05/13 10:43:29;;;;;;;;;;;;;;;;;;2197703;67;2346;-22
2023/05/13 10:46:12;;;;;;;;;;;;;;;;;;2199194;58;2897;-22
2023/05/13 10:48:47;;;;;;;;;;;;;;;;;;2199263;59;2784;-22
2023/05/13 10:51:22;;;;;;;;;;;;;;;;;;2198481;59;2952;-22
2023/05/13 10:53:53;;;;;;;;;;;;;;;;;;2200080;59;2992;-22
2023/05/13 10:56:24;;;;;;;;;;;;;;;;;;2198110;59;2140;-22
2023/05/13 10:58:58;;;;;;;;;;;;;;;;;;2198402;59;3046;-22
2023/05/13 11:01:37;;;;;;;;;;;;;;;;;;2199948;59;2059;-22
2023/05/13 11:04:15;;;;;;;;;;;;;;;;;;2198255;59;2824;-22
2023/05/13 11:06:47;;;;;;;;;;;;;;;;;;2199062;67;2115;-22
2023/05/13 11:09:27;;;;;;;;;;;;;;;;;;2200337;66;2171;-22
2023/05/13 11:11:58;;;;;;;;;;;;;;;;;;2198508;66;3280;-22
2023/05/13 11:14:31;;;;;;;;;;;;;;;;;;2199263;59;2111;-22
2023/05/13 11:17:03;;;;;;;;;;;;;;;;;;2198686;66;2114;-22
2023/05/13 11:19:33;;;;;;;;;;;;;;;;;;2199835;59;1866;-22
2023/05/13 11:22:20;;;;;;;;;;;;;;;;;;2199867;59;3205;-22
2023/05/13 11:25:02;;;;;;;;;;;;;;;;;;2199229;66;3328;-22
2023/05/13 11:27:37;;;;;;;;;;;;;;;;;;2198889;59;1967;-22
2023/05/13 11:30:19;;;;;;;;;;;;;;;;;;2199200;66;3036;-22
2023/05/13 11:32:50;;;;;;;;;;;;;;;;;;2198386;67;2445;-22
2023/05/13 11:35:21;;;;;;;;;;;;;;;;;;2199109;66;3060;-22
2023/05/13 11:37:52;;;;;;;;;;;;;;;;;;2199588;66;2007;-22
2023/05/13 11:40:23;;;;;;;;;;;;;;;;;;2200451;66;2479;-22
2023/05/13 11:42:53;;;;;;;;;;;;;;;;;;2201112;66;2128;-22
2023/05/13 11:45:24;;;;;;;;;;;;;;;;;;2199462;66;2058;-22
2023/05/13 11:47:55;;;;;;;;;;;;;;;;;;2197223;59;2430;-22
2023/05/13 11:50:26;;;;;;;;;;;;;;;;;;2199652;66;2132;-22
2023/05/13 11:53:00;;;;;;;;;;;;;;;;;;2199048;59;2889;-22
2023/05/13 11:55:35;;;;;;;;;;;;;;;;;;2198737;59;3104;-22
2023/05/13 11:58:05;;;;;;;;;;;;;;;;;;2199676;59;2253;-22
2023/05/13 12:00:35;;;;;;;;;;;;;;;;;;2199795;59;2484;-22
2023/05/13 12:03:10;;;;;;;;;;;;;;;;;;2210428;59;2363;-22
2023/05/13 12:05:42;;;;;;;;;;;;;;;;;;2199318;59;1761;-22
2023/05/13 12:08:13;;;;;;;;;;;;;;;;;;2198628;66;2299;-22
2023/05/13 12:10:46;;;;;;;;;;;;;;;;;;2197493;67;3393;-22
2023/05/13 12:13:17;;;;;;;;;;;;;;;;;;2199106;66;2022;-22
2023/05/13 12:15:48;;;;;;;;;;;;;;;;;;2202661;59;2425;-22
2023/05/13 12:18:18;;;;;;;;;;;;;;;;;;2198620;66;2081;-22
2023/05/13 12:20:48;;;;;;;;;;;;;;;;;;2198607;59;2371;-22
2023/05/13 12:23:19;;;;;;;;;;;;;;;;;;2198746;66;3065;-22
2023/05/13 12:25:52;;;;;;;;;;;;;;;;;;2198069;66;2251;-22
2023/05/13 12:28:23;;;;;;;;;;;;;;;;;;2197210;59;2573;-22
2023/05/13 12:30:58;;;;;;;;;;;;;;;;;;2199712;60;1960;-22
2023/05/13 12:33:32;;;;;;;;;;;;;;;;;;2198055;59;3252;-22
2023/05/13 12:36:24;;;;;;;;;;;;;;;;;;2199574;66;2025;-22
2023/05/13 12:38:54;;;;;;;;;;;;;;;;;;2199535;59;2805;-22
2023/05/13 12:41:26;;;;;;;;;;;;;;;;;;2198231;67;2756;-22
2023/05/13 12:44:00;;;;;;;;;;;;;;;;;;2200165;66;2915;-22
2023/05/13 12:46:31;;;;;;;;;;;;;;;;;;2199263;59;2767;-22
2023/05/13 12:49:03;;;;;;;;;;;;;;;;;;2198906;59;2315;-22
2023/05/13 12:51:33;;;;;;;;;;;;;;;;;;2200510;59;2591;-22
2023/05/13 12:54:03;;;;;;;;;;;;;;;;;;2197301;59;1756;-22
2023/05/13 12:56:34;;;;;;;;;;;;;;;;;;2199818;59;2297;-22
2023/05/13 12:59:04;;;;;;;;;;;;;;;;;;2197065;59;2610;-22
2023/05/13 13:01:35;;;;;;;;;;;;;;;;;;2199166;59;1771;-22
2023/05/13 13:04:05;;;;;;;;;;;;;;;;;;2196223;59;2971;-22
2023/05/13 13:06:35;;;;;;;;;;;;;;;;;;2198298;59;2262;-22
2023/05/13 13:09:06;;;;;;;;;;;;;;;;;;2197438;59;2375;-22
2023/05/13 13:11:38;;;;;;;;;;;;;;;;;;2197214;67;2025;-22
2023/05/13 13:14:08;;;;;;;;;;;;;;;;;;2197500;67;2426;-22
2023/05/13 13:16:38;;;;;;;;;;;;;;;;;;2199284;66;2490;-22
2023/05/13 13:19:08;;;;;;;;;;;;;;;;;;2199872;54;3553;-23
2023/05/13 13:21:38;;;;;;;;;;;;;;;;;;2199984;59;1924;-23
2023/05/13 13:24:09;;;;;;;;;;;;;;;;;;2197794;66;2077;-23
2023/05/13 13:26:39;;;;;;;;;;;;;;;;;;2198373;66;2600;-23
2023/05/13 13:29:10;;;;;;;;;;;;;;;;;;2205105;59;2382;-23
2023/05/13 13:31:40;;;;;;;;;;;;;;;;;;2200961;59;2523;-23
2023/05/13 13:34:13;;;;;;;;;;;;;;;;;;2200609;66;3072;-23
2023/05/13 13:36:44;;;;;;;;;;;;;;;;;;2215739;59;2109;-23
2023/05/13 13:39:14;;;;;;;;;;;;;;;;;;2214945;59;2627;-23
2023/05/13 13:41:46;;;;;;;;;;;;;;;;;;2203126;66;2196;-23
2023/05/13 13:44:16;;;;;;;;;;;;;;;;;;2215983;66;2857;-23
2023/05/13 13:46:46;;;;;;;;;;;;;;;;;;2203344;59;2708;-23
2023/05/13 13:49:18;;;;;;;;;;;;;;;;;;2216043;58;2118;-23
2023/05/13 13:51:48;;;;;;;;;;;;;;;;;;2215973;58;2202;-24
2023/05/13 13:54:19;;;;;;;;;;;;;;;;;;2216408;58;2662;-23
2023/05/13 13:56:49;;;;;;;;;;;;;;;;;;2216661;59;2602;-23
2023/05/13 13:59:20;;;;;;;;;;;;;;;;;;2200924;59;2724;-23
2023/05/13 14:01:51;;;;;;;;;;;;;;;;;;2216989;58;2446;-23
2023/05/13 14:04:22;;;;;;;;;;;;;;;;;;2215813;58;2813;-23
2023/05/13 14:06:54;;;;;;;;;;;;;;;;;;2216799;58;2757;-23
2023/05/13 14:09:24;;;;;;;;;;;;;;;;;;2217029;66;2523;-23
2023/05/13 14:11:54;;;;;;;;;;;;;;;;;;2215949;59;2809;-23
2023/05/13 14:14:24;;;;;;;;;;;;;;;;;;2217124;66;2573;-23
2023/05/13 14:16:55;;;;;;;;;;;;;;;;;;2216598;66;1983;-23
2023/05/13 14:19:25;;;;;;;;;;;;;;;;;;2213997;59;3044;-23
2023/05/13 14:21:55;;;;;;;;;;;;;;;;;;2215497;58;2314;-23
2023/05/13 14:24:26;;;;;;;;;;;;;;;;;;2216287;59;3151;-23
2023/05/13 14:26:57;;;;;;;;;;;;;;;;;;2216895;66;2840;-23
2023/05/13 14:29:27;;;;;;;;;;;;;;;;;;2216041;66;2863;-23
2023/05/13 14:32:03;;;;;;;;;;;;;;;;;;2201364;66;2897;-23
2023/05/13 14:34:33;;;;;;;;;;;;;;;;;;2198790;59;2162;-23
2023/05/13 14:37:04;;;;;;;;;;;;;;;;;;2216091;66;2638;-23
2023/05/13 14:39:37;;;;;;;;;;;;;;;;;;2216700;59;2770;-23
2023/05/13 14:42:10;;;;;;;;;;;;;;;;;;2215722;66;3262;-23
2023/05/13 14:44:40;;;;;;;;;;;;;;;;;;2216634;66;2071;-23
2023/05/13 14:47:10;;;;;;;;;;;;;;;;;;2215856;66;2574;-23
2023/05/13 14:49:41;;;;;;;;;;;;;;;;;;2200365;66;2984;-23
2023/05/13 14:52:11;;;;;;;;;;;;;;;;;;2215823;59;1987;-23
2023/05/13 14:54:41;;;;;;;;;;;;;;;;;;2216723;58;2077;-23
2023/05/13 14:57:11;;;;;;;;;;;;;;;;;;2215910;66;2768;-23
2023/05/13 14:59:41;;;;;;;;;;;;;;;;;;2216357;58;2074;-23
2023/05/13 15:02:12;;;;;;;;;;;;;;;;;;2216983;58;2736;-23
2023/05/13 15:04:42;;;;;;;;;;;;;;;;;;2218503;58;2665;-23
2023/05/13 15:07:13;;;;;;;;;;;;;;;;;;2215954;66;2883;-23
2023/05/13 15:09:43;;;;;;;;;;;;;;;;;;2216862;66;2732;-23
2023/05/13 15:12:13;;;;;;;;;;;;;;;;;;2216254;66;3367;-23
2023/05/13 15:14:50;;;;;;;;;;;;;;;;;;2215767;66;2616;-23
2023/05/13 15:17:20;;;;;;;;;;;;;;;;;;2215617;66;2821;-23
2023/05/13 15:19:50;;;;;;;;;;;;;;;;;;2215414;58;2896;-23
2023/05/13 15:22:21;;;;;;;;;;;;;;;;;;2216377;66;2776;-23
2023/05/13 15:24:51;;;;;;;;;;;;;;;;;;2200707;66;2846;-23
2023/05/13 15:27:21;;;;;;;;;;;;;;;;;;2215644;66;2947;-23
2023/05/13 15:29:52;;;;;;;;;;;;;;;;;;2214456;59;2742;-23
2023/05/13 15:32:22;;;;;;;;;;;;;;;;;;2216216;59;1955;-23
2023/05/13 15:34:52;;;;;;;;;;;;;;;;;;2215625;66;2279;-23
2023/05/13 15:37:22;;;;;;;;;;;;;;;;;;2215923;66;2880;-23
2023/05/13 15:39:53;;;;;;;;;;;;;;;;;;2217327;58;3700;-23
2023/05/13 15:42:23;;;;;;;;;;;;;;;;;;2199998;66;2892;-23
2023/05/13 15:44:53;;;;;;;;;;;;;;;;;;2216287;66;2690;-23
2023/05/13 15:47:24;;;;;;;;;;;;;;;;;;2198143;59;2899;-23
2023/05/13 15:49:54;;;;;;;;;;;;;;;;;;2216179;66;2595;-23
2023/05/13 15:52:24;;;;;;;;;;;;;;;;;;2216993;58;2546;-23
2023/05/13 15:54:54;;;;;;;;;;;;;;;;;;2216041;58;3188;-23
2023/05/13 15:57:25;;;;;;;;;;;;;;;;;;2216809;58;2758;-23
2023/05/13 15:59:55;;;;;;;;;;;;;;;;;;2216307;58;2729;-23
2023/05/13 16:02:27;;;;;;;;;;;;;;;;;;2215474;58;2293;-23
2023/05/13 16:04:58;;;;;;;;;;;;;;;;;;2199319;66;2853;-23
2023/05/13 16:07:28;;;;;;;;;;;;;;;;;;2215707;66;3185;-23
2023/05/13 16:09:58;;;;;;;;;;;;;;;;;;2215545;66;2050;-23
2023/05/13 16:12:29;;;;;;;;;;;;;;;;;;2216331;66;3098;-23
2023/05/13 16:15:00;;;;;;;;;;;;;;;;;;2201687;66;2793;-23
2023/05/13 16:17:30;;;;;;;;;;;;;;;;;;2217576;66;2573;-23
2023/05/13 16:20:00;;;;;;;;;;;;;;;;;;2216820;58;2583;-23
2023/05/13 16:22:32;;;;;;;;;;;;;;;;;;2215866;66;2950;-23
2023/05/13 16:25:04;;;;;;;;;;;;;;;;;;2216847;66;2972;-23
2023/05/13 16:27:35;;;;;;;;;;;;;;;;;;2202165;66;2556;-23
2023/05/13 16:30:06;;;;;;;;;;;;;;;;;;2215217;66;2077;-23
2023/05/13 16:32:36;;;;;;;;;;;;;;;;;;2216758;66;3916;-23
2023/05/13 16:35:07;;;;;;;;;;;;;;;;;;2216629;66;2542;-23
2023/05/13 16:37:38;;;;;;;;;;;;;;;;;;2202025;58;2229;-23
2023/05/13 16:40:09;;;;;;;;;;;;;;;;;;2215632;66;2706;-23
2023/05/13 16:42:39;;;;;;;;;;;;;;;;;;2215575;66;2064;-23
2023/05/13 16:45:10;;;;;;;;;;;;;;;;;;2216319;66;2586;-23
2023/05/13 16:47:40;;;;;;;;;;;;;;;;;;2216949;58;2557;-23
2023/05/13 16:50:10;;;;;;;;;;;;;;;;;;2215580;66;2545;-23
2023/05/13 16:52:41;;;;;;;;;;;;;;;;;;2201926;59;2599;-23
2023/05/13 16:55:11;;;;;;;;;;;;;;;;;;2216079;66;2168;-23
2023/05/13 16:57:42;;;;;;;;;;;;;;;;;;2217051;58;3101;-23
2023/05/13 17:00:13;;;;;;;;;;;;;;;;;;2216457;66;2616;-23
2023/05/13 17:02:43;;;;;;;;;;;;;;;;;;2216057;58;2838;-23
2023/05/13 17:05:13;;;;;;;;;;;;;;;;;;2215975;66;3243;-23
2023/05/13 17:07:44;;;;;;;;;;;;;;;;;;2213786;66;1908;-22
2023/05/13 17:10:14;;;;;;;;;;;;;;;;;;2215002;66;3383;-30
2023/05/13 17:12:44;;;;;;;;;;;;;;;;;;2216529;66;2540;-23
2023/05/13 17:15:14;;;;;;;;;;;;;;;;;;2214889;66;2559;-23
2023/05/13 17:17:45;;;;;;;;;;;;;;;;;;2200057;66;2785;-23
2023/05/13 17:20:17;;;;;;;;;;;;;;;;;;2216391;59;2612;-23
2023/05/13 17:22:47;;;;;;;;;;;;;;;;;;2215321;66;3003;-23
2023/05/13 17:25:17;;;;;;;;;;;;;;;;;;2201033;66;3029;-22
2023/05/13 17:27:48;;;;;;;;;;;;;;;;;;2215281;66;2161;-23
2023/05/13 17:30:18;;;;;;;;;;;;;;;;;;2217398;58;2087;-23